LAKE NATOMA (NIMBUS DAM) (NAT)

Elevation: 132' · AMERICAN R basin · Operator: US Bureau of Reclamation

Provisional data, subject to change.
Query executed Wednesday at 2:41:04   clock

Select a sensor type for a plot of data.
Note: Reservoir Flows are daily averages.

Earlier

Date RES ELE    STORAGE    RES CHG    OUTFLOW    INFLOW    SPILL    DIS PWR   
 FEET   AF   AF   CFS   CFS   CFS   CFS  
04/28/2015 121.96 7324 -247 608 486 0 523
04/29/2015 122.51 7571 247 997 1124 0 902
04/30/2015 123.26 7913 342 1062 1237 267 695
05/01/2015 123.57 8059 146 1061 1138 0 955
05/02/2015 123.85 8191 132 1067 1137 0 956
05/03/2015 123.55 8050 -- 1068 1002 0 950
05/04/2015 123.20 7885 -165 1073 991 0 958
05/05/2015 123.24 7904 -- 1052 1063 4 953
05/06/2015 123.48 8017 113 1302 1361 5 1202
05/07/2015 123.83 8181 164 1298 1383 0 1205
05/08/2015 124.04 8281 100 1293 1346 0 1203
05/09/2015 123.93 8228 -53 1296 1271 0 1206
05/10/2015 123.68 8111 -117 1302 1245 0 1207
05/11/2015 124.14 8331 220 1309 1423 0 1206
05/12/2015 124.03 8276 -55 1261 1235 0 1156
05/13/2015 123.87 8200 -76 1241 1205 0 1136
05/14/2015 124.16 8341 141 1279 1352 0 1174
05/15/2015 124.22 8371 30 1251 1268 0 1156
05/16/2015 124.08 8301 -70 1263 1230 0 1173
05/17/2015 124.02 8271 -30 1271 1258 0 1181
05/18/2015 124.41 8466 195 1244 1344 0 1154
05/19/2015 123.64 8092 -374 1253 1066 0 1163
05/20/2015 123.58 8064 -28 1506 1492 0 1416
05/21/2015 123.41 7984 -80 1520 1480 0 1430
05/22/2015 124.44 8481 497 1517 1768 0 1427
05/23/2015 123.75 8144 -337 1521 1351 0 1431
05/24/2015 123.66 8101 -43 1519 1497 0 1429
05/25/2015 123.16 7866 -235 1521 1403 0 1431
05/26/2015 -- -- -- -- -- -- --
05/27/2015 -- -- -- -- -- -- --

Later | Latest

Warning! This data is preliminary and subject to revision.

Show NAT Map | Plot NAT Data | 1 Month NAT Data | Real-Time NAT Data | NAT Info